Reykjavik, Iceland
Current Conditions -  °F | °C
As of 3:00 AM on Saturday 20 Dec 2014 (Local Time) from BIRK Reporting Station
Clear Clear  
Wind Chill: 17°   Ceiling: Unl
Heat Index: 27°   Visibility: 6mi
Dew Point: 21°   Wind: 9mph
Humidity: 80%   Direction: 110°ESE
Pressure: 29.68"   Gusts: NA
Location:  64.14°N, 21.92°W
Report Text: BIRK 200300Z 11008KT CAVOK M03/M06 Q1005
Loading
Personal Weather Stations






























Interactive Weather Map New forecast layout! Learn more

10-Day Weather Forecast

Advertisements
Track Severe Weather on mobile